Time;durP1;ratioP1;P1;durP2;ratioP2;P2;SDS_P1;SDS_P2;PMS_P1;PMS_P2;Temp;Humidity;BMP_temperature;BMP_pressure;BME280_temperature;BME280_humidity;BME280_pressure;Samples;Min_cycle;Max_cycle;Signal;HPM_P1;HPM_P2
2023/09/29 06:03:19;;;;;;;17.75;10.00;;;16.20;99.90;;;;;;4932783;29;20316;-88
2023/09/29 06:05:45;;;;;;;17.35;9.02;;;16.20;99.90;;;;;;4919452;29;20051;-87
2023/09/29 06:08:10;;;;;;;17.00;9.63;;;16.20;99.90;;;;;;4918209;29;20083;-87
2023/09/29 06:10:37;;;;;;;19.73;9.07;;;16.20;99.90;;;;;;4918932;29;20125;-87
2023/09/29 06:13:03;;;;;;;16.98;8.65;;;16.30;99.90;;;;;;4918838;29;20126;-89
2023/09/29 06:15:29;;;;;;;18.83;9.48;;;16.20;99.90;;;;;;4918744;29;20192;-90
2023/09/29 06:17:56;;;;;;;15.23;8.43;;;16.20;99.90;;;;;;4971090;23;20075;-87
2023/09/29 06:20:22;;;;;;;15.40;8.20;;;16.30;99.90;;;;;;4968807;28;20142;-89
2023/09/29 06:22:57;;;;;;;14.80;8.02;;;16.70;99.90;;;;;;4937486;29;20155;-87
2023/09/29 06:25:34;;;;;;;15.40;8.32;;;16.30;99.90;;;;;;4937575;29;20046;-87
2023/09/29 06:28:00;;;;;;;15.20;8.20;;;16.40;99.90;;;;;;4936883;29;20043;-87
2023/09/29 06:30:26;;;;;;;14.77;7.78;;;16.40;99.90;;;;;;4970549;28;20086;-87
2023/09/29 06:32:51;;;;;;;15.88;7.82;;;16.40;99.90;;;;;;4938015;29;20487;-87
2023/09/29 06:35:17;;;;;;;13.45;7.18;;;16.40;99.90;;;;;;4936868;29;20061;-87
2023/09/29 06:37:55;;;;;;;13.60;7.28;;;16.60;99.90;;;;;;4937705;29;20043;-87
2023/09/29 06:40:22;;;;;;;13.38;6.68;;;16.40;99.90;;;;;;4937011;29;20054;-88
2023/09/29 06:42:57;;;;;;;16.02;6.70;;;16.80;99.90;;;;;;4937204;29;20402;-88
2023/09/29 06:45:33;;;;;;;14.38;6.65;;;16.50;99.90;;;;;;4937303;29;20495;-88
2023/09/29 06:48:08;;;;;;;14.18;6.75;;;16.50;99.90;;;;;;4938034;29;20050;-89
2023/09/29 06:50:34;;;;;;;11.57;6.25;;;16.70;99.90;;;;;;4937132;29;20043;-88
2023/09/29 06:53:12;;;;;;;12.45;5.85;;;16.60;99.90;;;;;;4937968;29;20051;-87
2023/09/29 06:55:37;;;;;;;12.10;5.55;;;16.70;99.90;;;;;;4969057;28;20049;-87
2023/09/29 06:58:04;;;;;;;13.07;6.32;;;16.80;99.90;;;;;;4941859;29;20055;-87
2023/09/29 07:00:30;;;;;;;13.90;6.13;;;16.80;99.90;;;;;;4942612;29;20094;-88
2023/09/29 07:03:14;;;;;;;12.65;5.63;;;16.80;99.90;;;;;;4954261;29;20054;-87
2023/09/29 07:05:55;;;;;;;13.07;5.53;;;16.90;99.90;;;;;;4935584;29;20536;-88
2023/09/29 07:08:47;;;;;;;11.40;5.65;;;16.80;99.90;;;;;;4942050;23;20062;-88
2023/09/29 07:11:22;;;;;;;11.95;5.30;;;16.70;99.90;;;;;;4916972;29;20048;-89
2023/09/29 07:13:48;;;;;;;11.02;5.20;;;16.80;99.90;;;;;;4917717;29;20090;-88
2023/09/29 07:16:32;;;;;;;12.50;5.68;;;16.90;99.90;;;;;;4919227;29;20040;-88
2023/09/29 07:19:12;;;;;;;13.18;5.75;;;16.80;99.90;;;;;;4919160;29;20055;-86
2023/09/29 07:21:53;;;;;;;13.45;5.53;;;16.80;99.90;;;;;;4918675;29;20047;-86
2023/09/29 07:24:18;;;;;;;10.73;5.28;;;17.50;99.90;;;;;;4920530;29;20071;-87
2023/09/29 07:27:01;;;;;;;10.15;4.88;;;16.90;99.90;;;;;;4918971;29;20052;-87
2023/09/29 07:29:47;;;;;;;12.13;5.10;;;16.90;99.90;;;;;;4918315;29;20048;-87
2023/09/29 07:32:12;;;;;;;12.32;5.18;;;16.90;99.90;;;;;;4917708;29;20546;-87
2023/09/29 07:34:56;;;;;;;12.75;5.22;;;17.20;99.90;;;;;;4918181;29;20051;-87
2023/09/29 07:37:22;;;;;;;11.93;5.40;;;17.30;99.90;;;;;;4916805;29;20047;-87
2023/09/29 07:40:04;;;;;;;11.95;5.32;;;17.10;99.90;;;;;;4918012;29;20043;-87
2023/09/29 07:42:42;;;;;;;14.40;5.50;;;17.10;99.90;;;;;;4919005;29;20050;-87
2023/09/29 07:45:20;;;;;;;12.05;5.15;;;17.10;99.90;;;;;;4921313;29;20054;-88
2023/09/29 07:47:49;;;;;;;10.32;4.97;;;17.20;99.90;;;;;;4922213;29;20198;-86
2023/09/29 07:50:15;;;;;;;14.25;5.05;;;17.30;99.90;;;;;;4921680;29;20051;-86
2023/09/29 07:52:53;;;;;;;10.75;5.20;;;17.40;99.90;;;;;;4921102;29;20051;-86
2023/09/29 07:55:19;;;;;;;11.93;5.38;;;17.50;99.90;;;;;;4921507;29;20052;-86
2023/09/29 07:58:35;;;;;;;11.63;5.45;;;17.60;99.90;;;;;;4939350;29;20044;-86
2023/09/29 08:01:51;;;;;;;13.07;5.50;;;17.70;99.90;;;;;;4938122;29;20404;-86
2023/09/29 08:04:36;;;;;;;12.20;5.95;;;18.20;99.90;;;;;;4920252;29;20059;-86
2023/09/29 08:07:02;;;;;;;10.70;5.72;;;17.80;99.90;;;;;;4920392;29;20234;-86
2023/09/29 08:09:27;;;;;;;12.68;5.88;;;17.80;99.90;;;;;;4917251;29;20052;-86
2023/09/29 08:11:53;;;;;;;10.65;5.43;;;17.90;99.90;;;;;;4942075;29;20415;-86
2023/09/29 08:14:37;;;;;;;12.27;5.90;;;18.40;99.90;;;;;;4901396;29;20060;-86
2023/09/29 08:17:06;;;;;;;12.82;5.57;;;17.80;99.90;;;;;;4902822;29;20040;-86
2023/09/29 08:19:33;;;;;;;13.55;5.32;;;17.90;99.90;;;;;;4902356;29;20148;-87
2023/09/29 08:22:14;;;;;;;15.70;6.05;;;18.00;99.90;;;;;;4901877;29;20044;-86
2023/09/29 08:24:46;;;;;;;15.68;6.25;;;18.00;99.90;;;;;;4902277;29;20079;-86
2023/09/29 08:27:14;;;;;;;12.00;5.00;;;18.10;99.90;;;;;;4900960;29;20559;-86
2023/09/29 08:29:43;;;;;;;12.88;5.70;;;18.30;99.90;;;;;;4902135;29;20099;-87
2023/09/29 08:32:15;;;;;;;14.85;5.90;;;18.40;99.90;;;;;;4925418;23;20059;-87
2023/09/29 08:34:40;;;;;;;14.45;6.18;;;18.40;99.90;;;;;;4939457;29;20039;-86
2023/09/29 08:37:06;;;;;;;13.95;5.70;;;18.50;99.90;;;;;;4939844;29;20055;-85
2023/09/29 08:39:32;;;;;;;12.30;5.60;;;18.50;99.90;;;;;;4971395;28;20047;-86
2023/09/29 08:42:22;;;;;;;12.43;5.22;;;18.60;99.90;;;;;;4956183;29;20051;-86
2023/09/29 08:45:09;;;;;;;12.52;4.97;;;18.70;99.90;;;;;;4932432;29;20055;-86
2023/09/29 08:47:38;;;;;;;14.57;5.97;;;18.90;99.90;;;;;;4957290;29;20133;-86
2023/09/29 08:50:05;;;;;;;12.60;5.50;;;19.10;99.90;;;;;;4941756;23;20052;-86
2023/09/29 08:52:32;;;;;;;11.00;5.00;;;19.00;99.90;;;;;;4936442;29;20452;-86
2023/09/29 08:54:59;;;;;;;13.30;4.97;;;19.10;99.90;;;;;;4935467;29;20039;-86
2023/09/29 08:57:45;;;;;;;11.10;5.22;;;19.10;99.90;;;;;;4934737;29;20062;-87
2023/09/29 09:00:14;;;;;;;13.45;5.25;;;19.20;99.90;;;;;;4936252;29;20048;-86
2023/09/29 09:02:49;;;;;;;11.30;5.47;;;19.40;99.90;;;;;;4936069;29;20062;-86
2023/09/29 09:05:30;;;;;;;13.35;5.10;;;19.50;99.90;;;;;;4935415;29;20058;-86
2023/09/29 09:07:59;;;;;;;10.68;4.35;;;19.60;99.90;;;;;;4936368;29;20491;-85
2023/09/29 09:10:58;;;;;;;13.20;4.63;;;19.80;99.90;;;;;;4936268;29;20055;-86
2023/09/29 09:13:27;;;;;;;12.57;4.80;;;19.90;99.90;;;;;;4936202;29;20134;-86
2023/09/29 09:16:00;;;;;;;8.93;4.28;;;20.00;99.90;;;;;;4936676;29;20075;-86
2023/09/29 09:18:38;;;;;;;9.63;4.17;;;20.20;99.90;;;;;;4936363;29;20047;-86
2023/09/29 09:21:03;;;;;;;10.98;4.00;;;20.30;99.90;;;;;;4935684;29;20366;-86
2023/09/29 09:23:39;;;;;;;10.80;4.57;;;20.40;99.90;;;;;;4934932;29;20078;-86
2023/09/29 09:26:23;;;;;;;11.43;4.22;;;20.50;99.90;;;;;;4968946;28;20052;-85
2023/09/29 09:29:20;;;;;;;8.98;3.78;;;20.40;99.90;;;;;;4935904;29;20059;-86
2023/09/29 09:31:53;;;;;;;11.68;4.10;;;20.50;99.90;;;;;;4935021;29;20138;-86
2023/09/29 09:34:19;;;;;;;9.50;4.25;;;20.60;99.90;;;;;;4967119;28;20054;-86
2023/09/29 09:36:58;;;;;;;8.82;3.63;;;21.00;99.90;;;;;;4935299;29;20178;-86
2023/09/29 09:39:34;;;;;;;8.90;3.50;;;20.70;99.90;;;;;;4932858;29;20134;-86
2023/09/29 09:42:11;;;;;;;11.20;4.07;;;20.80;99.90;;;;;;4954387;28;20048;-86
2023/09/29 09:44:41;;;;;;;9.05;3.70;;;21.00;99.90;;;;;;4934520;29;20075;-85
2023/09/29 09:47:25;;;;;;;10.55;3.70;;;21.00;99.90;;;;;;4934838;29;20111;-85
2023/09/29 09:49:57;;;;;;;11.60;3.90;;;21.20;99.90;;;;;;4934057;29;20154;-86
2023/09/29 09:52:29;;;;;;;12.68;3.67;;;21.20;99.90;;;;;;4934622;29;20059;-85
2023/09/29 09:54:58;;;;;;;8.55;3.40;;;21.30;99.90;;;;;;4935745;29;20071;-85
2023/09/29 09:57:45;;;;;;;9.43;3.80;;;21.40;99.90;;;;;;4941067;23;20060;-86
2023/09/29 10:00:12;;;;;;;10.48;3.75;;;21.50;99.90;;;;;;4933985;29;20411;-86
2023/09/29 10:02:47;;;;;;;9.77;3.50;;;21.50;99.90;;;;;;4935261;29;20070;-87
2023/09/29 10:05:24;;;;;;;8.88;3.40;;;21.50;99.90;;;;;;4933701;29;20047;-87
2023/09/29 10:07:55;;;;;;;9.82;3.80;;;21.50;99.90;;;;;;4953162;29;20084;-88
2023/09/29 10:10:41;;;;;;;11.10;3.65;;;21.60;99.90;;;;;;4937993;29;20126;-87
2023/09/29 10:13:19;;;;;;;14.13;4.30;;;21.40;99.90;;;;;;4937740;29;20439;-87
2023/09/29 10:15:56;;;;;;;10.93;3.92;;;21.30;99.90;;;;;;4937544;29;20060;-89
2023/09/29 10:18:24;;;;;;;10.57;3.97;;;21.30;99.90;;;;;;4938525;29;20098;-89
2023/09/29 10:21:00;;;;;;;10.52;3.80;;;21.30;99.90;;;;;;4937063;29;20051;-87
2023/09/29 10:23:26;;;;;;;12.48;3.72;;;21.30;99.90;;;;;;4937734;29;20047;-90
2023/09/29 10:26:02;;;;;;;9.13;3.90;;;21.30;99.90;;;;;;4940906;23;20035;-91
2023/09/29 10:28:39;;;;;;;11.77;4.13;;;21.30;99.90;;;;;;4938303;29;20065;-88
2023/09/29 10:31:19;;;;;;;9.23;3.83;;;21.30;99.90;;;;;;4970462;28;20078;-89
2023/09/29 10:34:01;;;;;;;10.93;4.00;;;21.30;99.90;;;;;;4948504;28;20050;-88
2023/09/29 10:36:41;;;;;;;9.30;3.70;;;21.40;99.90;;;;;;4937536;29;20074;-90
2023/09/29 10:39:27;;;;;;;9.40;3.90;;;21.60;99.90;;;;;;4927077;29;20039;-89
2023/09/29 10:42:14;;;;;;;10.93;3.95;;;21.70;99.90;;;;;;4936501;29;20071;-90
2023/09/29 10:45:06;;;;;;;9.80;3.80;;;21.50;99.90;;;;;;4938056;29;20055;-90
2023/09/29 10:47:35;;;;;;;9.68;3.50;;;21.60;99.90;;;;;;4930548;29;20055;-90
2023/09/29 10:50:22;;;;;;;12.20;4.07;;;21.70;99.90;;;;;;4937781;29;20377;-89
2023/09/29 10:53:03;;;;;;;11.73;4.35;;;21.40;99.90;;;;;;4937743;29;20138;-90
2023/09/29 10:55:49;;;;;;;9.35;4.22;;;21.30;99.90;;;;;;4938802;29;20406;-89
2023/09/29 10:58:38;;;;;;;10.32;3.83;;;21.20;99.90;;;;;;4937778;29;20103;-89
2023/09/29 11:01:11;;;;;;;10.57;4.30;;;21.20;99.90;;;;;;4937430;29;20098;-90
2023/09/29 11:03:37;;;;;;;10.20;4.20;;;21.40;99.90;;;;;;4936315;29;20518;-90
2023/09/29 11:06:20;;;;;;;12.13;4.25;;;21.30;99.90;;;;;;4937314;29;20087;-90
2023/09/29 11:08:53;;;;;;;9.30;3.92;;;21.30;99.90;;;;;;4936243;29;20082;-89
2023/09/29 11:11:26;;;;;;;8.90;4.22;;;21.10;99.90;;;;;;4937361;29;20039;-89
2023/09/29 11:13:55;;;;;;;10.20;4.20;;;21.20;99.90;;;;;;4937527;29;20043;-89
2023/09/29 11:16:24;;;;;;;10.45;4.25;;;21.50;99.90;;;;;;4928421;29;20103;-89
2023/09/29 11:18:56;;;;;;;9.77;4.30;;;21.20;99.90;;;;;;4928415;29;20043;-90
2023/09/29 11:21:35;;;;;;;11.90;4.70;;;21.30;99.90;;;;;;4941054;29;20051;-90
2023/09/29 11:24:19;;;;;;;13.77;4.28;;;21.40;99.90;;;;;;4940631;29;20086;-90
2023/09/29 11:26:51;;;;;;;10.43;4.20;;;21.40;99.90;;;;;;4932312;29;20060;-89
2023/09/29 11:29:43;;;;;;;13.27;4.68;;;21.40;99.90;;;;;;4927634;29;20048;-88
2023/09/29 11:32:11;;;;;;;10.85;4.50;;;21.30;99.90;;;;;;4916994;29;20117;-90
2023/09/29 11:34:37;;;;;;;11.13;4.43;;;21.30;99.90;;;;;;4922537;29;20051;-89
2023/09/29 11:37:05;;;;;;;9.82;4.13;;;21.30;99.90;;;;;;4921982;29;20534;-89
2023/09/29 11:39:31;;;;;;;10.93;4.20;;;21.50;99.90;;;;;;4935714;29;20126;-90
2023/09/29 11:42:08;;;;;;;12.43;4.13;;;21.60;99.90;;;;;;4937774;29;20051;-89
2023/09/29 11:44:35;;;;;;;9.98;3.95;;;21.80;99.90;;;;;;4920848;29;20054;-90
2023/09/29 11:47:09;;;;;;;11.60;4.20;;;21.80;99.90;;;;;;4921827;29;20047;-89
2023/09/29 11:49:41;;;;;;;9.75;3.75;;;21.80;99.90;;;;;;4937380;29;20044;-90
2023/09/29 11:52:10;;;;;;;10.20;4.20;;;21.80;99.90;;;;;;4936685;29;20051;-88
2023/09/29 11:54:35;;;;;;;10.90;4.10;;;22.00;99.90;;;;;;4915219;29;20104;-88
2023/09/29 11:57:02;;;;;;;10.07;3.75;;;22.10;99.90;;;;;;4919947;29;20060;-87
2023/09/29 11:59:28;;;;;;;11.25;4.07;;;22.20;99.90;;;;;;4920890;29;20086;-87
2023/09/29 12:01:54;;;;;;;12.70;4.20;;;22.30;99.90;;;;;;4925058;29;20464;-88
2023/09/29 12:04:20;;;;;;;10.43;4.05;;;22.30;99.90;;;;;;4954013;29;20091;-88
2023/09/29 12:06:45;;;;;;;15.07;4.78;;;22.20;99.90;;;;;;4913989;29;20075;-88
2023/09/29 12:09:11;;;;;;;11.18;4.47;;;22.30;99.90;;;;;;4902713;29;20130;-88
2023/09/29 12:11:52;;;;;;;12.30;4.10;;;22.20;99.90;;;;;;4934001;29;20484;-88
2023/09/29 12:14:36;;;;;;;10.82;4.20;;;22.10;99.90;;;;;;4902261;29;20044;-88
2023/09/29 12:17:02;;;;;;;9.93;4.00;;;22.00;99.90;;;;;;4904544;29;20377;-88
2023/09/29 12:19:40;;;;;;;10.32;4.10;;;22.10;99.90;;;;;;4901719;29;20551;-88
2023/09/29 12:22:05;;;;;;;10.85;4.35;;;22.00;99.90;;;;;;4904049;29;20052;-88
2023/09/29 12:24:38;;;;;;;10.40;4.05;;;21.90;99.90;;;;;;4901857;29;20469;-87
2023/09/29 12:27:08;;;;;;;9.00;4.10;;;21.90;99.90;;;;;;4910847;29;20098;-88
2023/09/29 12:29:35;;;;;;;9.93;4.20;;;21.90;99.90;;;;;;4920611;29;20051;-88
2023/09/29 12:32:16;;;;;;;10.52;4.25;;;21.80;99.90;;;;;;4919868;29;20098;-87
2023/09/29 12:34:42;;;;;;;12.10;4.25;;;21.60;99.90;;;;;;4920738;29;20079;-88
2023/09/29 12:37:22;;;;;;;9.60;3.75;;;21.50;99.90;;;;;;4937338;29;20047;-88
2023/09/29 12:39:49;;;;;;;10.20;3.92;;;21.40;99.90;;;;;;4920721;29;20054;-90
2023/09/29 12:42:15;;;;;;;11.07;4.20;;;21.30;99.90;;;;;;4922639;29;20075;-88
2023/09/29 12:44:53;;;;;;;10.43;4.45;;;21.20;99.90;;;;;;4952650;29;20040;-87
2023/09/29 12:47:18;;;;;;;10.88;4.80;;;20.90;99.90;;;;;;4920341;29;20058;-89
2023/09/29 12:49:59;;;;;;;11.13;5.05;;;20.80;99.90;;;;;;4921282;29;20040;-90
2023/09/29 12:52:25;;;;;;;11.48;5.32;;;20.60;99.90;;;;;;4936434;29;20050;-88
2023/09/29 12:55:02;;;;;;;10.90;5.72;;;20.40;99.90;;;;;;4920195;29;20047;-89
2023/09/29 12:57:28;;;;;;;11.15;5.93;;;20.40;99.90;;;;;;4920756;29;20135;-87
2023/09/29 12:59:55;;;;;;;13.68;5.95;;;20.30;99.90;;;;;;4975442;28;20046;-87
2023/09/29 13:02:24;;;;;;;9.88;5.18;;;20.20;99.90;;;;;;4953504;28;20047;-88
2023/09/29 13:04:50;;;;;;;9.77;5.00;;;20.10;99.90;;;;;;4942587;29;20047;-90
2023/09/29 13:07:22;;;;;;;10.07;4.82;;;20.30;99.90;;;;;;4972732;28;20053;-88
2023/09/29 13:09:57;;;;;;;10.90;4.97;;;20.00;99.90;;;;;;4938651;29;20054;-89
2023/09/29 13:12:25;;;;;;;10.70;4.85;;;19.80;99.90;;;;;;4938398;29;20050;-88
2023/09/29 13:14:54;;;;;;;11.35;5.00;;;19.80;99.90;;;;;;4939615;29;20099;-88
2023/09/29 13:17:48;;;;;;;8.90;4.68;;;19.60;99.90;;;;;;4938221;29;20101;-88
2023/09/29 13:23:47;;;;;;;11.75;5.05;;;19.50;99.90;;;;;;4879033;29;20052;-89
2023/09/29 13:26:12;;;;;;;9.57;4.80;;;19.90;99.90;;;;;;4931135;29;20035;-88
2023/09/29 13:28:38;;;;;;;10.93;4.95;;;19.90;99.90;;;;;;4938360;29;20043;-89
2023/09/29 13:31:13;;;;;;;9.30;4.80;;;19.90;99.90;;;;;;4938251;29;20059;-88
2023/09/29 13:33:39;;;;;;;11.20;5.07;;;19.80;99.90;;;;;;4944302;29;20043;-87
2023/09/29 13:36:05;;;;;;;10.82;5.00;;;19.70;99.90;;;;;;4938717;29;20110;-87
2023/09/29 13:38:37;;;;;;;14.02;5.88;;;19.70;99.90;;;;;;4938459;29;20368;-88
2023/09/29 13:41:15;;;;;;;8.50;3.85;;;19.60;99.90;;;;;;4938042;29;20502;-89
2023/09/29 13:43:40;;;;;;;7.70;2.63;;;19.40;99.90;;;;;;4939617;29;20450;-88
2023/09/29 13:46:06;;;;;;;6.15;2.00;;;19.30;99.90;;;;;;4938505;29;20051;-88
2023/09/29 13:48:32;;;;;;;5.50;1.80;;;18.90;99.90;;;;;;4954373;29;20047;-87
2023/09/29 13:51:03;;;;;;;4.97;1.50;;;18.80;99.90;;;;;;4939385;29;20406;-88
2023/09/29 13:53:45;;;;;;;5.28;1.58;;;18.60;99.90;;;;;;4938308;29;20109;-89
2023/09/29 13:56:11;;;;;;;3.40;1.40;;;18.40;99.90;;;;;;4937727;29;20133;-87
2023/09/29 13:58:43;;;;;;;4.32;1.48;;;18.30;99.90;;;;;;4937465;29;20129;-87
2023/09/29 14:01:13;;;;;;;3.22;1.40;;;18.40;99.90;;;;;;4969968;28;20130;-87
2023/09/29 14:03:39;;;;;;;4.07;1.50;;;18.30;99.90;;;;;;4932114;29;20078;-87
2023/09/29 14:06:05;;;;;;;3.47;1.30;;;18.40;99.90;;;;;;4934463;29;20086;-87
2023/09/29 14:08:33;;;;;;;4.05;1.50;;;18.50;99.90;;;;;;4937676;29;20082;-87
2023/09/29 14:11:13;;;;;;;4.85;1.60;;;18.50;99.90;;;;;;4938345;29;20063;-88
2023/09/29 14:13:42;;;;;;;4.05;1.30;;;18.20;99.90;;;;;;4937834;29;20047;-87
2023/09/29 14:16:15;;;;;;;3.35;1.35;;;18.30;99.90;;;;;;4954438;29;20486;-87
2023/09/29 14:18:42;;;;;;;2.55;1.13;;;18.30;99.90;;;;;;4937308;29;20105;-87
2023/09/29 14:21:08;;;;;;;3.25;1.40;;;18.50;99.90;;;;;;4939487;29;20086;-85
2023/09/29 14:23:33;;;;;;;3.83;1.42;;;18.10;99.90;;;;;;4937637;29;20047;-85
2023/09/29 14:25:59;;;;;;;4.53;1.50;;;18.00;99.90;;;;;;4933716;29;20058;-85
2023/09/29 14:28:25;;;;;;;2.97;1.40;;;18.00;99.90;;;;;;4954089;28;20480;-84
2023/09/29 14:30:51;;;;;;;3.90;1.40;;;17.80;99.90;;;;;;4967221;28;20048;-84
2023/09/29 14:33:17;;;;;;;4.45;1.50;;;17.70;99.90;;;;;;4935590;29;20047;-85
2023/09/29 14:35:45;;;;;;;4.20;1.55;;;17.60;99.90;;;;;;4937461;29;20071;-85
2023/09/29 14:38:11;;;;;;;5.78;1.30;;;17.60;99.90;;;;;;4958177;28;20047;-85
2023/09/29 14:40:55;;;;;;;;;;;17.50;99.90;;;;;;4951137;29;20410;-85
2023/09/29 14:43:22;;;;;;;4.18;1.35;;;17.60;99.90;;;;;;4937286;29;20004;-85
2023/09/29 14:45:49;;;;;;;3.75;1.17;;;17.60;99.90;;;;;;4937511;29;20043;-85
2023/09/29 14:48:15;;;;;;;3.22;1.25;;;17.50;99.90;;;;;;4936584;29;20118;-85
2023/09/29 14:50:43;;;;;;;4.50;1.30;;;17.60;99.90;;;;;;4937544;28;20047;-85
2023/09/29 14:53:09;;;;;;;3.60;1.30;;;17.70;99.90;;;;;;4937115;29;20043;-84
2023/09/29 14:55:41;;;;;;;5.05;1.60;;;17.70;99.90;;;;;;4936320;29;20059;-85
2023/09/29 14:58:07;;;;;;;5.32;1.50;;;17.60;99.90;;;;;;4937022;29;20451;-85
2023/09/29 15:00:33;;;;;;;5.28;1.38;;;17.50;99.90;;;;;;4937284;29;20121;-85
2023/09/29 15:02:59;;;;;;;5.53;1.48;;;17.70;99.90;;;;;;4937953;29;20055;-84
2023/09/29 15:05:26;;;;;;;5.55;1.50;;;17.40;99.90;;;;;;4937198;29;20040;-85
2023/09/29 15:07:51;;;;;;;7.10;1.60;;;17.60;99.90;;;;;;4937252;29;20043;-85
2023/09/29 15:10:23;;;;;;;9.02;1.52;;;17.40;99.90;;;;;;4937202;29;20396;-84
2023/09/29 15:12:48;;;;;;;6.60;1.50;;;17.60;99.90;;;;;;4937398;29;20047;-85
2023/09/29 15:15:14;;;;;;;5.57;1.60;;;18.10;99.90;;;;;;4936740;29;20459;-85
2023/09/29 15:17:52;;;;;;;6.68;1.80;;;18.30;99.90;;;;;;4938326;29;20054;-85
2023/09/29 15:20:27;;;;;;;7.00;1.88;;;18.50;99.90;;;;;;4933163;29;20052;-83
2023/09/29 15:23:02;;;;;;;7.22;1.88;;;18.50;99.90;;;;;;4932695;29;20058;-84
2023/09/29 15:25:28;;;;;;;7.78;2.00;;;18.40;99.90;;;;;;4928388;29;20519;-84
2023/09/29 15:27:59;;;;;;;10.52;2.00;;;18.40;99.90;;;;;;4934339;29;20138;-85
2023/09/29 15:30:25;;;;;;;7.95;1.88;;;18.40;99.90;;;;;;4926913;29;20048;-83
2023/09/29 15:33:13;;;;;;;12.15;2.95;;;18.30;99.90;;;;;;4933857;29;20457;-85
2023/09/29 15:35:50;;;;;;;8.23;2.30;;;18.20;99.90;;;;;;4917886;29;20443;-85
2023/09/29 15:38:17;;;;;;;8.05;2.28;;;18.40;99.90;;;;;;4918288;29;20055;-85
2023/09/29 15:40:42;;;;;;;9.27;2.17;;;18.50;99.90;;;;;;4948008;23;20146;-85
2023/09/29 15:43:08;;;;;;;8.38;2.42;;;18.90;99.90;;;;;;4936322;29;20138;-85
2023/09/29 15:45:34;;;;;;;11.15;2.50;;;18.70;99.90;;;;;;4937170;29;20074;-85
2023/09/29 15:47:59;;;;;;;9.15;2.40;;;18.50;99.90;;;;;;4936816;29;20047;-85
2023/09/29 15:50:25;;;;;;;8.30;2.30;;;18.30;99.90;;;;;;4936013;29;20050;-85
2023/09/29 15:52:51;;;;;;;11.52;2.58;;;18.10;99.90;;;;;;4954528;29;20046;-85
2023/09/29 15:55:16;;;;;;;11.40;2.45;;;17.90;99.90;;;;;;4937150;29;20095;-87
2023/09/29 15:57:44;;;;;;;11.32;3.03;;;17.70;99.90;;;;;;4935475;29;20047;-86
2023/09/29 16:00:10;;;;;;;8.48;2.35;;;17.60;99.90;;;;;;4928724;29;20043;-87
2023/09/29 16:02:36;;;;;;;10.15;2.60;;;17.40;99.90;;;;;;4933921;29;20415;-80
2023/09/29 16:05:03;;;;;;;10.32;2.92;;;17.40;99.90;;;;;;4952106;23;20110;-86
2023/09/29 16:11:15;;;;;;;13.68;2.83;;;17.20;99.90;;;;;;4855918;29;20061;-86
2023/09/29 16:13:43;;;;;;;12.18;2.70;;;17.20;99.90;;;;;;4882470;29;20057;-86
2023/09/29 16:16:09;;;;;;;12.35;2.88;;;17.30;99.90;;;;;;4883908;29;20041;-84
2023/09/29 16:18:35;;;;;;;11.30;2.55;;;17.20;99.90;;;;;;4891999;29;20052;-84
2023/09/29 16:21:03;;;;;;;10.65;2.60;;;17.30;99.90;;;;;;4884185;29;20072;-84
2023/09/29 16:23:29;;;;;;;9.93;2.65;;;17.20;99.90;;;;;;4881546;29;20041;-85
2023/09/29 16:26:30;;;;;;;12.90;2.78;;;17.20;99.90;;;;;;4881390;29;20052;-85
2023/09/29 16:28:55;;;;;;;9.90;2.50;;;17.10;99.90;;;;;;4928417;23;20058;-85
2023/09/29 16:31:23;;;;;;;11.27;2.50;;;17.10;99.90;;;;;;4916509;29;20048;-85
2023/09/29 16:33:49;;;;;;;11.02;2.90;;;17.00;99.90;;;;;;4919425;29;20040;-86
2023/09/29 16:36:18;;;;;;;10.65;2.53;;;16.90;99.90;;;;;;4918227;29;20059;-85
2023/09/29 16:38:44;;;;;;;11.63;2.55;;;16.90;99.90;;;;;;4921299;29;20496;-84
2023/09/29 16:41:10;;;;;;;10.38;2.50;;;16.90;99.90;;;;;;4929516;29;20098;-85
2023/09/29 16:43:38;;;;;;;12.48;2.88;;;16.80;99.90;;;;;;4923066;29;20439;-85
2023/09/29 16:46:07;;;;;;;12.90;2.70;;;16.80;99.90;;;;;;4931441;29;20048;-86
2023/09/29 16:48:35;;;;;;;12.25;2.92;;;17.20;99.90;;;;;;4916707;29;20048;-86
2023/09/29 16:51:03;;;;;;;11.60;3.00;;;16.60;99.90;;;;;;4918079;29;20370;-86
2023/09/29 16:53:31;;;;;;;11.90;3.17;;;16.90;99.90;;;;;;4924529;29;20043;-86
2023/09/29 16:56:07;;;;;;;12.45;2.80;;;16.40;99.90;;;;;;4924214;29;20048;-88
2023/09/29 16:58:36;;;;;;;10.57;2.80;;;16.40;99.90;;;;;;4916142;29;20126;-87
2023/09/29 17:01:03;;;;;;;15.73;3.55;;;16.30;99.90;;;;;;4917324;29;20051;-87
2023/09/29 17:03:29;;;;;;;20.25;3.30;;;16.20;99.90;;;;;;4919277;29;20424;-87
2023/09/29 17:05:55;;;;;;;11.70;2.65;;;16.20;99.90;;;;;;4919050;29;20135;-87
2023/09/29 17:08:21;;;;;;;11.60;2.72;;;16.10;99.90;;;;;;4918752;29;20142;-86
2023/09/29 17:10:48;;;;;;;13.27;2.90;;;16.00;99.90;;;;;;4920384;29;20040;-86
2023/09/29 17:13:26;;;;;;;11.00;2.72;;;16.50;99.90;;;;;;4932838;23;20075;-86
2023/09/29 17:16:09;;;;;;;10.93;3.08;;;15.90;99.90;;;;;;4900316;29;20055;-86
2023/09/29 17:18:44;;;;;;;10.43;2.90;;;15.80;99.90;;;;;;4901552;29;20519;-87
2023/09/29 17:21:22;;;;;;;11.73;2.92;;;15.70;99.90;;;;;;4900537;29;20048;-86
2023/09/29 17:24:23;;;;;;;12.65;3.25;;;15.60;99.90;;;;;;4901386;29;20055;-86
2023/09/29 17:27:07;;;;;;;14.30;3.90;;;15.20;99.90;;;;;;4891283;29;20156;-86
2023/09/29 17:29:51;;;;;;;;;;;15.40;99.90;;;;;;4899965;29;20048;-87
2023/09/29 17:32:29;;;;;;;13.38;4.13;;;15.00;99.90;;;;;;4900952;29;19950;-86
2023/09/29 17:35:10;;;;;;;15.68;4.18;;;15.40;99.90;;;;;;4901084;29;20040;-86
2023/09/29 17:37:54;;;;;;;14.98;3.92;;;15.30;99.90;;;;;;4900739;29;20052;-86
2023/09/29 17:40:33;;;;;;;;;;;15.20;99.90;;;;;;4901325;29;20381;-86
2023/09/29 17:43:05;;;;;;;15.65;4.30;;;15.10;99.90;;;;;;4900092;29;19977;-87
2023/09/29 17:49:10;;;;;;;17.92;4.85;;;15.10;99.90;;;;;;4827380;29;20510;-89
2023/09/29 17:51:52;;;;;;;16.48;4.75;;;14.90;99.90;;;;;;4843538;29;20058;-89
2023/09/29 17:57:13;;;;;;;16.17;5.15;;;14.80;99.90;;;;;;4843336;29;20053;-88
2023/09/29 17:59:41;;;;;;;18.80;5.00;;;14.80;99.90;;;;;;4894077;29;20056;-88
2023/09/29 18:02:07;;;;;;;18.40;5.00;;;14.70;99.90;;;;;;4903037;29;20044;-89
2023/09/29 18:04:32;;;;;;;17.88;4.97;;;14.70;99.90;;;;;;4915672;29;20147;-88
2023/09/29 18:07:21;;;;;;;16.55;4.43;;;14.60;99.90;;;;;;4921493;29;20044;-88
2023/09/29 18:09:48;;;;;;;16.95;4.82;;;14.50;99.90;;;;;;4899915;29;20055;-88
2023/09/29 18:12:14;;;;;;;17.55;5.07;;;14.50;99.90;;;;;;4899521;29;20118;-89
2023/09/29 18:14:40;;;;;;;15.80;4.85;;;14.40;99.90;;;;;;4902478;29;20063;-89
2023/09/29 18:17:06;;;;;;;19.05;5.07;;;14.40;99.90;;;;;;4901434;29;20056;-94
2023/09/29 18:19:40;;;;;;;21.08;5.35;;;15.40;99.90;;;;;;4900436;29;20206;-95
2023/09/29 18:22:12;;;;;;;17.25;5.20;;;14.30;99.90;;;;;;4900710;29;20054;-95
2023/09/29 18:24:41;;;;;;;18.80;4.65;;;14.20;99.90;;;;;;4900344;29;20044;-94
2023/09/29 18:27:22;;;;;;;16.55;5.22;;;14.20;99.90;;;;;;4900288;29;20058;-94
2023/09/29 18:29:49;;;;;;;19.35;5.15;;;15.10;99.90;;;;;;4901028;29;20389;-94
2023/09/29 18:35:06;;;;;;;18.67;5.05;;;14.00;99.90;;;;;;4890372;29;20403;-94
2023/09/29 18:38:03;;;;;;;18.35;4.70;;;14.00;99.90;;;;;;4901886;29;20044;-94
2023/09/29 18:40:41;;;;;;;17.13;5.60;;;13.90;99.90;;;;;;4901027;29;20056;-95
2023/09/29 18:43:09;;;;;;;14.90;4.93;;;13.90;99.90;;;;;;4901306;29;20047;-94
2023/09/29 18:45:41;;;;;;;15.05;4.68;;;13.90;99.90;;;;;;4901366;29;20100;-95
2023/09/29 18:48:07;;;;;;;15.82;4.57;;;13.80;99.90;;;;;;4917254;29;20151;-94
2023/09/29 18:50:45;;;;;;;17.83;4.68;;;13.80;99.90;;;;;;4901641;29;20044;-95
2023/09/29 18:53:11;;;;;;;19.83;4.95;;;14.60;99.90;;;;;;4899985;29;20048;-94
2023/09/29 18:55:49;;;;;;;15.55;4.60;;;13.70;99.90;;;;;;4900604;29;20044;-94
2023/09/29 18:58:23;;;;;;;17.58;4.95;;;13.60;99.90;;;;;;4916366;29;20047;-94
2023/09/29 19:00:52;;;;;;;15.88;4.63;;;14.20;99.90;;;;;;4921632;29;20055;-94
2023/09/29 19:03:28;;;;;;;17.05;5.25;;;13.60;99.90;;;;;;4933510;29;20046;-95
2023/09/29 19:06:02;;;;;;;18.02;4.60;;;13.50;99.90;;;;;;4905655;29;20444;-95
2023/09/29 19:08:34;;;;;;;15.63;4.72;;;13.50;99.90;;;;;;4900262;29;20075;-95
2023/09/29 19:11:03;;;;;;;18.88;4.75;;;13.40;99.90;;;;;;4916140;29;20040;-96
2023/09/29 19:13:33;;;;;;;18.42;4.88;;;14.60;99.90;;;;;;4899878;29;20056;-96
2023/09/29 19:16:21;;;;;;;19.73;5.60;;;14.50;99.90;;;;;;4900158;29;20052;-95
2023/09/29 19:18:51;;;;;;;16.13;4.95;;;12.70;99.90;;;;;;4900425;29;20079;-96
2023/09/29 19:21:23;;;;;;;18.98;5.03;;;13.00;99.90;;;;;;4899977;29;20051;-95
2023/09/29 19:23:53;;;;;;;18.92;5.40;;;13.70;99.90;;;;;;4900853;29;20048;-95
2023/09/29 19:26:40;;;;;;;15.52;4.65;;;14.10;99.90;;;;;;4897450;29;20120;-95